Cleveland, ND (58424)

12:06 AM CDT on August 28, 2014 (GMT -0500)
Eldridge-Lippert | Change Station
CLOSE
Current Station
Personal Weather Station
Location: Jamestown, ND
Elevation: 1649 ft
Nearby Weather Stations

Elev 1649 ft 46.84 °N, 98.93 °W | Updated 37 seconds ago

Overcast
Overcast
65.1 °F
Feels Like 65.1 °F
N
1.0
Wind Variable Wind from SE
Gusts 2.0 mph

Today
High -- | Low -- °F
--% Chance of Precip.
Yesterday
High -- | Low -- °F
Precip. -- in
6:50 AM 8:23 PM
Waxing Crescent, 6% visible
Pressure 30.03 in
Visibility 10.0 miles
Clouds Scattered Clouds 3900 ft
Overcast 5000 ft
Dew Point 62 °F
Humidity 90%
Rainfall 0.01 in
Snow Depth Not available.
UV 0.0 out of 12
Pollen 10.00 out of 12
Air Quality Not available.
Flu Activity Not available.
METAR KJMS 280456Z AUTO 15008KT 10SM SCT039 OVC050 19/16 A3004 RMK AO2 SLP169 T01890156

More Conditions Fewer Conditions

Pressure 30.03 in
Visibility 10.0 miles
Clouds Scattered Clouds 3900 ft
Overcast 5000 ft
Dew Point 62 °F
Humidity 90%
Rainfall 0.01 in
Snow Depth Not available.
UV 0.0 out of 12
Pollen 10.00 out of 12
Air Quality Not available.
Flu Activity Not available.
METAR KJMS 280456Z AUTO 15008KT 10SM SCT039 OVC050 19/16 A3004 RMK AO2 SLP169 T01890156

More Conditions Fewer Conditions

10-Day Weather Forecast

Almanac

Astronomy

Aug. 28, 2014 Rise Set
Actual Time 6:50 AM CDT 8:23 PM CDT
Civil Twilight 6:18 AM CDT 8:55 PM CDT
Nautical Twilight 5:40 AM CDT 9:33 PM CDT
Astronomical Twilight 4:58 AM CDT 10:15 PM CDT
Moon 9:58 AM CDT 9:33 PM CDT
Length of Visible Light 14h 36m
Length of Day
13h 32m
Tomorrow will be 3m 12s shorter.
Waxing Crescent, 6% of the Moon is Illuminated
Today
Waxing Crescent
Sep 2
First Quarter
Sep 8
Full
Sep 15
Last Quarter
Sep 24
New

Today's Extremes

State Highs State Lows

Community

WunderPhotos

Upload Photos

1,747,908 photos uploaded!

Nearby

Snow Depth

Station Depth Elevation
No new snow has been reported.

Earthquake Activity

City Distance Mag. Time & Date
No recent earthquake activity has been reported nearby.
Minimum magnitude displayed is 2.5.

Coastal Water Temperatures

Place Temperature
No Stations Reporting

Nearby Weather Stations